Flight Track Log - Related Links

Times and Time Zones

All times are in EDT time to prevent confusion due to time zone crossing. See the LOF3416 flight status page for this flight to view local times or setup timezone preferences in your user account.

Time Position Orientation Groundspeed Altitude Reporting Facility
EDT Latitude Longitude Course Direction KTS MPH feet Rate Location/Type
Sat 10:29:15 PM 41.9833 -87.8833 143° Southeast 161 185 1,300  Level Chicago TRACON
Sat 10:30:15 PM 41.9500 -87.8500 143° Southeast 206 237 3,100 1,788 Climbing Chicago TRACON
Sat 10:30:59 PM 41.8947 -87.8356 169° South 223 257 4,400 1,714 Climbing Chicago Center
Sat 10:32:00 PM 41.8222 -87.8303 177° South 242 278 6,100 2,066 Climbing Chicago Center
Sat 10:33:01 PM 41.7575 -87.8819 211° Southwest 266 306 8,600 2,311 Climbing Chicago Center
Sat 10:34:02 PM 41.6933 -87.9281 208° Southwest 265 305 10,800 1,967 Climbing Chicago Center
Sat 10:35:03 PM 41.6139 -87.9458 189° South 288 331 12,600 1,721 Climbing Chicago Center
Sat 10:36:04 PM 41.5328 -87.9686 192° South 299 344 14,300 1,525 Climbing Chicago Center
Sat 10:37:05 PM 41.4547 -88.0139 203° Southwest 305 351 15,700 1,180 Climbing Chicago Center
Sat 10:38:06 PM 41.3761 -88.0608 204° Southwest 320 368 16,700 1,082 Climbing Chicago Center
Sat 10:39:07 PM 41.2822 -88.1150 203° Southwest 325 374 17,900 1,033 Climbing Chicago Center
Sat 10:40:08 PM 41.1953 -88.1656 204° Southwest 340 391 18,800 1,230 Climbing Chicago Center
Sat 10:41:09 PM 41.1047 -88.2175 203° Southwest 353 406 20,400 1,525 Climbing Chicago Center
Sat 10:42:10 PM 41.0178 -88.2681 204° Southwest 346 398 21,900 1,623 Climbing Chicago Center
Sat 10:43:11 PM 40.9322 -88.3161 203° Southwest 338 389 23,700 1,574 Climbing Chicago Center
Sat 10:44:12 PM 40.8478 -88.3644 203° Southwest 333 383 25,100 1,623 Climbing Chicago Center
Sat 10:45:13 PM 40.7478 -88.4211 203° Southwest 329 379 27,000 1,426 Climbing Chicago Center
Sat 10:46:14 PM 40.6650 -88.4700 204° Southwest 328 377 28,000 787 Climbing Chicago Center
Sat 10:47:15 PM 40.5753 -88.5200 203° Southwest 345 397 28,600 934 Climbing Chicago Center
Sat 10:48:16 PM 40.4878 -88.5694 203° Southwest 346 398 29,900 689 Climbing Chicago Center
Sat 10:49:17 PM 40.4019 -88.6186 204° Southwest 352 405 30,000 49 Climbing Chicago Center
Sat 10:50:18 PM 40.3075 -88.6819 207° Southwest 386 444 30,000  Level Chicago Center
Sat 10:51:19 PM 40.2306 -88.7783 224° Southwest 387 445 30,000  Level Chicago Center
Sat 10:52:20 PM 40.1503 -88.8794 224° Southwest 395 455 30,000  Level Chicago Center
Sat 10:53:21 PM 40.0678 -88.9828 224° Southwest 408 470 30,000  Level Chicago Center
Sat 10:54:22 PM 39.9886 -89.0850 225° Southwest 402 463 30,000  Level Chicago Center
Sat 10:55:14 PM 39.9081 -89.1858 224° Southwest 404 465 30,000  Level Kansas City Center
Sat 10:56:17 PM 39.8264 -89.2883 224° Southwest 406 467 30,000  Level Kansas City Center
Sat 10:57:18 PM 39.7447 -89.3914 224° Southwest 407 468 30,000  Level Kansas City Center
Sat 10:58:19 PM 39.6731 -89.4800 224° Southwest 407 468 30,000  Level Kansas City Center
Sat 10:59:20 PM 39.5750 -89.6031 224° Southwest 409 471 30,000  Level Kansas City Center
Sat 11:00:21 PM 39.4925 -89.7047 224° Southwest 409 471 30,000  Level Kansas City Center
Sat 11:01:21 PM 39.4103 -89.8078 224° Southwest 411 473 30,000  Level Kansas City Center
Sat 11:02:23 PM 39.3278 -89.9103 224° Southwest 413 475 30,000  Level Kansas City Center
Sat 11:03:25 PM 39.2458 -90.0117 224° Southwest 411 473 30,000  Level Kansas City Center
Sat 11:04:26 PM 39.1875 -90.1331 238° Southwest 412 474 30,000  Level Kansas City Center
Sat 11:05:25 PM 39.1636 -90.2747 258° West 410 472 30,000  Level Kansas City Center
Sat 11:06:25 PM 39.1383 -90.4167 257° West 410 472 30,000  Level Kansas City Center
Sat 11:07:29 PM 39.1144 -90.5583 258° West 410 472 30,000  Level Kansas City Center
Sat 11:08:27 PM 39.0858 -90.7269 258° West 407 468 30,000  Level Kansas City Center
Sat 11:09:29 PM 39.0600 -90.8706 257° West 412 474 30,000  Level Kansas City Center
Sat 11:10:29 PM 39.0358 -91.0131 258° West 412 474 30,000  Level Kansas City Center
Sat 11:11:31 PM 39.0122 -91.1528 258° West 406 467 30,000  Level Kansas City Center
Sat 11:12:33 PM 38.9900 -91.2897 258° West 397 457 30,000  Level Kansas City Center
Sat 11:13:31 PM 38.9686 -91.4253 259° West 392 451 30,000  Level Kansas City Center
Sat 11:14:32 PM 38.9442 -91.5589 257° West 387 445 30,000  Level Kansas City Center
Sat 11:15:33 PM 38.9231 -91.7103 260° West 387 445 30,000  Level Kansas City Center
Sat 11:16:34 PM 38.9131 -91.8478 265° West 386 444 30,000  Level Kansas City Center
Sat 11:17:34 PM 38.9017 -91.9861 264° West 388 447 30,000  Level Kansas City Center
Sat 11:18:38 PM 38.8886 -92.1264 263° West 394 453 30,000  Level Kansas City Center
Sat 11:19:36 PM 38.8761 -92.2661 263° West 395 455 30,000  Level Kansas City Center
Sat 11:20:38 PM 38.8639 -92.4042 264° West 392 451 30,000  Level Kansas City Center
Sat 11:21:39 PM 38.8456 -92.5369 260° West 384 442 30,000  Level Kansas City Center
Sat 11:22:40 PM 38.8147 -92.6614 252° West 375 432 30,000  Level Kansas City Center
Sat 11:23:40 PM 38.7583 -92.7694 236° Southwest 369 425 30,000  Level Kansas City Center
Sat 11:24:42 PM 38.7017 -92.8747 235° Southwest 362 417 30,000  Level Kansas City Center
Sat 11:25:42 PM 38.6253 -92.9500 218° Southwest 359 413 30,000 -50 Level Kansas City Center
Sat 11:26:42 PM 38.5269 -92.9775 192° South 363 418 29,900 -1,636 Descending Kansas City Center
Sat 11:27:43 PM 38.4136 -93.0106 193° South 352 405 26,700 -3,435 Descending Kansas City Center
Sat 11:28:46 PM 38.3094 -93.0431 194° South 376 433 22,800 -3,726 Descending Kansas City Center
Sat 11:29:47 PM 38.1978 -93.0778 194° South 405 466 19,000 -3,000 Descending Kansas City Center
Sat 11:30:48 PM 38.0908 -93.1094 193° South 403 464 16,700 -1,950 Descending Kansas City Center
Sat 11:31:47 PM 37.9981 -93.1383 194° South 365 420 15,100 -2,250 Descending Kansas City Center
Sat 11:32:48 PM 37.9083 -93.1664 194° South 337 388 12,200 -2,281 Descending Kansas City Center
Sat 11:33:48 PM 37.8164 -93.1933 193° South 338 389 10,500 -1,587 Descending Kansas City Center
Sat 11:34:49 PM 37.7411 -93.2164 194° South 299 344 9,000 -1,597 Descending Kansas City Center
Sat 11:35:52 PM 37.6753 -93.2669 211° Southwest 280 322 7,200 -1,721 Descending Kansas City Center
Sat 11:36:51 PM 37.6100 -93.2958 199° South 266 306 5,500 -1,636 Descending Kansas City Center
Sat 11:37:53 PM 37.5392 -93.2903 176° South 260 299 3,900 -1,220 Descending Kansas City Center
Sat 11:38:54 PM 37.4700 -93.2908 180° South 253 291 3,000 -500 Descending Kansas City Center
Sat 11:39:53 PM 37.4036 -93.2989 186° South 246 283 2,900 -50 Descending Kansas City Center
Sat 11:40:53 PM 37.3575 -93.3278 206° Southwest 211 243 2,900 -145 Level Kansas City Center
Sat 11:41:57 PM 37.3161 -93.3483 202° Southwest 181 208 2,600 -347 Descending Kansas City Center
Sat 11:42:54 PM 37.2822 -93.3669 204° Southwest 151 174 2,200 -421 Descending Kansas City Center
Sat 11:44:00 PM 37.2457 -93.3886 194° South  Level Estimated
Sat 11:51:00 PM 37.2457 -93.3886 194° South  Level Estimated

Login

Don't have an account? Register now (free) for customized features, flight alerts, and more!